Main page


Airports :

Asaluyeh, Iran

Persian Gulf Airport

latitude: 27-22-46N, longitude: 52-44-15E, elevation: 8 m

Current weather observation

The report was made 3 hours and 46 minutes ago, at 18:00 UTC
Wind 2 kt from variable directions
Temperature 21°C
Humidity 88%
Pressure 1008 hPa
Visibility 10 km or more
no clouds below 1500 m and no cumulonimbus

METAR: OIBP 221800Z VRB02KT CAVOK 21/19 Q1008 A2977

Time: 02:16 (21:46 UTC)

TAF: missing

Weather observations and forecasts of more than 4000 airports (METAR and TAF reports).

The available stations are represented by yellow and red dots on the map.

Hover mouse over dot to see the name of the station.

Then click to see weather observations and forecasts.

To change the map : click on the green buttons with a black cross to zoom in, on the green button with a dash to zoom out, or on the green arrows for adjacent maps.